Time;durP1;ratioP1;P1;durP2;ratioP2;P2;SDS_P1;SDS_P2;PMS_P1;PMS_P2;Temp;Humidity;BMP_temperature;BMP_pressure;BME280_temperature;BME280_humidity;BME280_pressure;Samples;Min_cycle;Max_cycle;Signal;HPM_P1;HPM_P2
2023/08/18 00:00:07;;;;;;;1.07;1.07;;;;;;;26.13;65.58;99406.03;5050964;28;20669;-66
2023/08/18 00:02:34;;;;;;;1.20;1.20;;;;;;;26.09;65.80;99406.31;5050483;28;20197;-66
2023/08/18 00:05:01;;;;;;;0.83;0.80;;;;;;;26.04;66.45;99403.28;5048657;28;20220;-66
2023/08/18 00:07:28;;;;;;;1.00;1.00;;;;;;;26.02;66.06;99394.72;5050650;28;20208;-66
2023/08/18 00:09:55;;;;;;;1.07;1.00;;;;;;;25.96;66.68;99405.81;5050646;28;20202;-66
2023/08/18 00:12:23;;;;;;;1.27;1.17;;;;;;;25.97;67.04;99396.97;5050426;28;20197;-66
2023/08/18 00:14:51;;;;;;;0.80;0.80;;;;;;;26.00;66.55;99398.47;5050930;28;20200;-66
2023/08/18 00:17:18;;;;;;;0.90;0.90;;;;;;;25.99;67.17;99400.25;5050650;28;20562;-66
2023/08/18 00:19:44;;;;;;;0.93;0.93;;;;;;;25.98;66.63;99398.59;5050807;28;20205;-66
2023/08/18 00:22:11;;;;;;;0.83;0.83;;;;;;;25.97;66.61;99396.97;5050308;28;20651;-66
2023/08/18 00:24:38;;;;;;;1.07;1.00;;;;;;;25.92;66.87;99393.09;5050533;28;20255;-66
2023/08/18 00:27:05;;;;;;;0.90;0.90;;;;;;;25.84;67.69;99396.47;5050527;28;20267;-66
2023/08/18 00:29:33;;;;;;;1.00;1.00;;;;;;;25.76;67.73;99401.56;5049382;28;20208;-66
2023/08/18 00:32:00;;;;;;;0.80;0.80;;;;;;;25.67;68.29;99399.81;5050482;28;20196;-66
2023/08/18 00:34:27;;;;;;;1.00;1.00;;;;;;;25.67;68.32;99399.81;5049666;28;20231;-66
2023/08/18 00:36:53;;;;;;;1.67;1.00;;;;;;;25.65;68.74;99396.50;5050485;28;20266;-66
2023/08/18 00:39:20;;;;;;;1.00;1.00;;;;;;;25.50;69.02;99382.16;5050370;28;20267;-66
2023/08/18 00:41:47;;;;;;;1.63;1.10;;;;;;;25.61;68.53;99397.75;5050766;28;20196;-66
2023/08/18 00:44:13;;;;;;;1.03;1.03;;;;;;;25.63;69.35;99397.59;5050589;28;20258;-66
2023/08/18 00:46:44;;;;;;;1.50;1.40;;;;;;;25.59;69.06;99382.13;5050418;28;20212;-66
2023/08/18 00:49:11;;;;;;;1.13;1.13;;;;;;;25.55;68.92;99400.94;5050648;28;20201;-66
2023/08/18 00:51:40;;;;;;;1.03;0.73;;;;;;;25.50;68.91;99397.91;5050545;28;20262;-66
2023/08/18 00:54:07;;;;;;;0.70;0.70;;;;;;;25.49;68.71;99386.56;5053879;28;20227;-65
2023/08/18 00:56:34;;;;;;;1.37;1.37;;;;;;;25.48;68.74;99399.81;5054230;28;20247;-66
2023/08/18 00:59:02;;;;;;;1.00;1.00;;;;;;;25.46;68.83;99391.25;5050422;28;20274;-66
2023/08/18 01:01:29;;;;;;;1.87;1.70;;;;;;;25.43;69.03;99396.75;5054314;28;20254;-66
2023/08/18 01:03:59;;;;;;;2.47;1.07;;;;;;;25.39;69.67;99400.66;5054242;28;20201;-66
2023/08/18 01:06:25;;;;;;;1.23;0.93;;;;;;;25.22;69.66;99382.97;5054120;28;20220;-66
2023/08/18 01:08:52;;;;;;;5.13;1.20;;;;;;;25.30;70.42;99402.31;5054091;28;20197;-66
2023/08/18 01:11:26;;;;;;;0.80;0.80;;;;;;;25.20;70.94;99400.69;5053973;28;20286;-66
2023/08/18 01:13:59;;;;;;;1.00;1.00;;;;;;;25.10;71.24;99405.09;5052978;28;20204;-66
2023/08/18 01:16:29;;;;;;;5.13;1.10;;;;;;;25.03;71.46;99403.03;5052521;28;20197;-66
2023/08/18 01:18:58;;;;;;;1.20;1.20;;;;;;;24.98;72.13;99397.34;5053969;28;20235;-66
2023/08/18 01:21:26;;;;;;;1.07;1.07;;;;;;;24.97;72.19;99406.19;5053868;28;20688;-66
2023/08/18 01:23:54;;;;;;;1.43;1.10;;;;;;;24.95;72.86;99400.25;5053418;28;20224;-66
2023/08/18 01:26:20;;;;;;;1.30;0.87;;;;;;;24.87;72.73;99405.34;5054002;28;20354;-66
2023/08/18 01:28:47;;;;;;;1.00;0.97;;;;;;;24.83;72.86;99403.97;5054024;28;20255;-66
2023/08/18 01:31:28;;;;;;;1.07;1.07;;;;;;;24.76;72.85;99399.34;5054101;28;20634;-66
2023/08/18 01:34:01;;;;;;;2.57;1.40;;;;;;;24.70;73.52;99392.88;5053657;28;20204;-66
2023/08/18 01:36:32;;;;;;;1.30;1.27;;;;;;;24.63;73.34;99396.16;5053537;28;20247;-66
2023/08/18 01:39:02;;;;;;;1.30;1.20;;;;;;;24.55;74.02;99394.22;5053482;28;20201;-66
2023/08/18 01:41:31;;;;;;;1.23;1.23;;;;;;;24.51;74.03;99387.59;5053516;28;20254;-66
2023/08/18 01:44:00;;;;;;;1.10;1.10;;;;;;;24.45;74.53;99385.50;5053214;28;20203;-66
2023/08/18 01:46:27;;;;;;;0.93;0.93;;;;;;;24.47;74.38;99389.66;5053424;28;20220;-66
2023/08/18 01:48:54;;;;;;;1.70;1.60;;;;;;;24.44;74.36;99386.47;5053286;28;20204;-65
2023/08/18 01:51:20;;;;;;;0.97;0.97;;;;;;;24.41;74.99;99378.88;5053485;28;20223;-66
2023/08/18 01:53:47;;;;;;;0.93;0.90;;;;;;;24.41;75.65;99382.31;5053147;28;20201;-66
2023/08/18 01:56:15;;;;;;;1.70;1.00;;;;;;;24.37;75.55;99378.31;5053495;28;20251;-66
2023/08/18 01:58:42;;;;;;;2.23;1.50;;;;;;;24.37;76.18;99375.69;5053231;28;20288;-66
2023/08/18 02:01:09;;;;;;;13.27;1.43;;;;;;;24.41;75.59;99381.50;5053166;28;20208;-66
2023/08/18 02:03:35;;;;;;;1.70;1.50;;;;;;;24.41;75.30;99377.09;5052307;28;20201;-66
2023/08/18 02:06:03;;;;;;;0.90;0.90;;;;;;;24.35;74.69;99376.78;5052664;28;20765;-66
2023/08/18 02:08:30;;;;;;;1.23;1.23;;;;;;;24.25;75.00;99375.94;5053234;28;20291;-66
2023/08/18 02:11:02;;;;;;;1.00;1.00;;;;;;;24.22;74.67;99376.19;5052992;28;20196;-66
2023/08/18 02:13:30;;;;;;;4.13;1.30;;;;;;;24.14;75.38;99378.63;5052844;28;20753;-66
2023/08/18 02:15:57;;;;;;;2.70;0.97;;;;;;;24.10;75.14;99375.44;5052619;28;20628;-66
2023/08/18 02:18:23;;;;;;;2.47;0.97;;;;;;;24.09;75.10;99370.31;5052932;28;20197;-66
2023/08/18 02:20:55;;;;;;;5.00;1.00;;;;;;;24.07;75.37;99375.72;5052681;28;20200;-66
2023/08/18 02:23:22;;;;;;;2.27;0.90;;;;;;;24.13;75.90;99385.69;5052604;28;20577;-66
2023/08/18 02:25:48;;;;;;;0.83;0.83;;;;;;;23.99;75.79;99365.88;5052528;28;20334;-66
2023/08/18 02:28:17;;;;;;;0.97;0.97;;;;;;;24.04;76.39;99383.81;5052809;28;20196;-66
2023/08/18 02:30:46;;;;;;;1.13;1.13;;;;;;;23.99;76.78;99381.59;5052988;28;20201;-65
2023/08/18 02:33:12;;;;;;;1.13;1.03;;;;;;;23.99;76.59;99381.59;5052525;28;20193;-66
2023/08/18 02:35:42;;;;;;;0.67;0.67;;;;;;;23.90;77.25;99387.63;5052796;28;20205;-66
2023/08/18 02:38:10;;;;;;;3.07;1.27;;;;;;;23.90;76.72;99382.38;5052481;28;20266;-66
2023/08/18 02:40:37;;;;;;;1.03;1.03;;;;;;;23.73;77.89;99369.06;5052507;28;20644;-66
2023/08/18 02:43:04;;;;;;;1.30;1.20;;;;;;;23.79;78.53;99379.84;5051945;28;20193;-66
2023/08/18 02:45:30;;;;;;;1.23;1.13;;;;;;;23.86;78.53;99388.84;5052627;28;20639;-66
2023/08/18 02:47:59;;;;;;;2.63;1.07;;;;;;;23.87;77.65;99382.66;5052074;28;20270;-66
2023/08/18 02:50:25;;;;;;;1.40;1.30;;;;;;;23.86;78.41;99391.47;5052527;28;20238;-66
2023/08/18 02:52:52;;;;;;;1.20;1.20;;;;;;;23.85;78.58;99391.56;5052043;28;20250;-66
2023/08/18 02:55:19;;;;;;;1.77;0.80;;;;;;;23.83;78.34;99380.41;5051893;28;20661;-66
2023/08/18 02:57:45;;;;;;;1.10;1.10;;;;;;;23.84;78.10;99388.16;5052260;28;20192;-66
2023/08/18 03:00:13;;;;;;;1.10;1.10;;;;;;;23.77;79.07;99387.00;5052086;28;20665;-66
2023/08/18 03:02:40;;;;;;;0.83;0.73;;;;;;;23.71;79.08;99394.53;5052245;28;20205;-66
2023/08/18 03:05:09;;;;;;;1.33;1.10;;;;;;;23.64;79.45;99375.91;5051486;28;20197;-66
2023/08/18 03:07:35;;;;;;;1.00;1.00;;;;;;;23.55;79.43;99361.00;5052007;28;20754;-66
2023/08/18 03:10:02;;;;;;;2.73;0.93;;;;;;;23.64;80.11;99391.63;5051594;28;20200;-65
2023/08/18 03:12:29;;;;;;;1.00;1.00;;;;;;;23.60;80.04;99390.19;5051863;28;20201;-66
2023/08/18 03:14:55;;;;;;;1.20;1.20;;;;;;;23.59;80.33;99392.97;5051451;28;20348;-65
2023/08/18 03:17:22;;;;;;;1.70;1.27;;;;;;;23.57;80.08;99390.47;5050624;28;20204;-66
2023/08/18 03:19:49;;;;;;;4.73;1.37;;;;;;;23.53;80.64;99394.28;5050259;28;20205;-66
2023/08/18 03:22:17;;;;;;;3.60;0.67;;;;;;;23.50;80.86;99395.38;5051552;28;20225;-66
2023/08/18 03:24:44;;;;;;;1.53;1.43;;;;;;;23.46;81.48;99396.59;5051504;28;20259;-66
2023/08/18 03:27:11;;;;;;;1.07;1.07;;;;;;;23.41;81.56;99396.16;5051517;28;20584;-66
2023/08/18 03:29:37;;;;;;;1.37;1.37;;;;;;;23.42;81.50;99396.97;5051939;28;20204;-66
2023/08/18 03:32:05;;;;;;;1.47;1.30;;;;;;;23.40;81.46;99396.25;5051388;28;20196;-65
2023/08/18 03:34:32;;;;;;;1.07;0.97;;;;;;;23.39;81.83;99397.22;5051192;28;20200;-66
2023/08/18 03:36:58;;;;;;;1.37;1.37;;;;;;;23.36;82.49;99397.47;5051438;28;20189;-66
2023/08/18 03:39:26;;;;;;;0.80;0.80;;;;;;;23.30;83.21;99397.94;5051184;28;20200;-66
2023/08/18 03:41:53;;;;;;;0.70;0.70;;;;;;;23.29;83.14;99401.53;5051311;28;20193;-66
2023/08/18 03:44:20;;;;;;;1.60;1.10;;;;;;;23.25;83.84;99394.88;5051032;28;20643;-66
2023/08/18 03:46:46;;;;;;;3.03;1.00;;;;;;;23.18;83.71;99384.09;5051331;28;20220;-66
2023/08/18 03:49:13;;;;;;;0.80;0.80;;;;;;;23.22;83.78;99389.91;5051041;28;20201;-66
2023/08/18 03:51:40;;;;;;;1.40;1.40;;;;;;;23.21;83.49;99399.53;5051118;28;20577;-66
2023/08/18 03:54:06;;;;;;;1.17;0.80;;;;;;;23.21;83.22;99396.91;5051249;28;20201;-66
2023/08/18 03:56:34;;;;;;;1.73;1.10;;;;;;;23.14;83.60;99387.91;5051105;28;20242;-66
2023/08/18 03:59:01;;;;;;;1.03;1.03;;;;;;;23.20;83.51;99397.06;5051243;28;20254;-66
2023/08/18 04:01:28;;;;;;;1.07;1.03;;;;;;;23.21;83.67;99398.69;5050835;28;20201;-66
2023/08/18 04:03:59;;;;;;;0.90;0.90;;;;;;;23.14;83.64;99402.78;5050791;28;20655;-66
2023/08/18 04:06:26;;;;;;;1.57;1.10;;;;;;;23.12;83.39;99405.53;5050607;28;20208;-65
2023/08/18 04:09:06;;;;;;;1.47;1.17;;;;;;;23.14;84.46;99408.00;5050937;28;20254;-66
2023/08/18 04:11:32;;;;;;;1.10;1.10;;;;;;;23.14;84.94;99408.84;5050741;28;20196;-66
2023/08/18 04:14:01;;;;;;;0.93;0.93;;;;;;;23.15;84.86;99404.44;5050809;28;20659;-66
2023/08/18 04:16:28;;;;;;;0.90;0.90;;;;;;;23.19;84.62;99416.31;5050937;28;20232;-66
2023/08/18 04:18:54;;;;;;;1.50;1.13;;;;;;;23.21;85.02;99410.00;5050880;28;20561;-66
2023/08/18 04:21:21;;;;;;;0.83;0.83;;;;;;;23.21;84.63;99410.00;5050640;28;20201;-66
2023/08/18 04:23:48;;;;;;;0.83;0.83;;;;;;;23.21;85.25;99414.41;5050423;28;20228;-66
2023/08/18 04:26:14;;;;;;;0.83;0.83;;;;;;;23.23;84.58;99413.31;5050789;28;20669;-66
2023/08/18 04:28:41;;;;;;;1.07;1.00;;;;;;;23.23;85.03;99412.50;5056052;28;20734;-66
2023/08/18 04:31:09;;;;;;;0.90;0.90;;;;;;;23.24;85.12;99416.75;5057574;28;20200;-66
2023/08/18 04:33:36;;;;;;;1.03;1.03;;;;;;;23.27;86.07;99413.88;5057106;28;20265;-66
2023/08/18 04:36:03;;;;;;;0.93;0.93;;;;;;;23.29;85.69;99404.16;5057244;28;20200;-66
2023/08/18 04:38:30;;;;;;;1.57;1.53;;;;;;;23.39;86.56;99412.91;5057271;28;20635;-66
2023/08/18 04:40:58;;;;;;;1.00;1.00;;;;;;;23.45;86.26;99402.78;5057242;28;20213;-66
2023/08/18 04:43:24;;;;;;;1.07;1.07;;;;;;;23.62;86.94;99413.66;5057158;28;20210;-65
2023/08/18 04:45:52;;;;;;;0.90;0.90;;;;;;;23.75;86.20;99409.84;5056849;28;20750;-66
2023/08/18 04:48:20;;;;;;;1.60;1.50;;;;;;;23.95;85.35;99416.84;5057378;28;20738;-66
2023/08/18 04:50:48;;;;;;;1.70;1.60;;;;;;;24.16;85.14;99418.66;5057065;28;20204;-66
2023/08/18 04:53:15;;;;;;;3.47;1.40;;;;;;;24.24;82.25;99421.41;5057463;28;20664;-66
2023/08/18 04:55:42;;;;;;;1.10;1.10;;;;;;;24.37;81.58;99422.03;5056448;28;20272;-66
2023/08/18 04:58:12;;;;;;;0.87;0.87;;;;;;;24.50;81.99;99417.38;5056599;28;20193;-66
2023/08/18 05:00:39;;;;;;;1.33;1.17;;;;;;;24.74;81.04;99422.28;5056850;28;20208;-66
2023/08/18 05:03:06;;;;;;;1.27;1.17;;;;;;;24.84;79.55;99423.97;5056493;28;20597;-66
2023/08/18 05:05:35;;;;;;;4.80;1.43;;;;;;;25.08;79.32;99428.81;5056855;28;20693;-65
2023/08/18 05:08:02;;;;;;;2.00;1.23;;;;;;;25.15;77.47;99408.94;5056777;28;20599;-65
2023/08/18 05:10:28;;;;;;;1.00;1.00;;;;;;;25.45;76.93;99426.34;5057469;28;20196;-65
2023/08/18 05:12:55;;;;;;;2.05;1.42;;;;;;;25.66;75.15;99429.66;5054608;28;20443;-66
2023/08/18 05:15:22;;;;;;;1.10;1.00;;;;;;;25.91;75.43;99426.41;5055847;28;20215;-66
2023/08/18 05:17:49;;;;;;;1.30;1.30;;;;;;;26.18;76.01;99428.28;5056360;28;20280;-65
2023/08/18 05:20:16;;;;;;;1.23;1.23;;;;;;;26.39;73.64;99428.06;5056192;28;20212;-66
2023/08/18 05:22:44;;;;;;;1.07;1.07;;;;;;;26.61;72.48;99419.78;5055650;28;20263;-66
2023/08/18 05:25:11;;;;;;;1.10;1.10;;;;;;;26.60;71.85;99399.72;5056459;28;20204;-66
2023/08/18 05:27:38;;;;;;;0.90;0.90;;;;;;;26.99;72.72;99427.47;5056355;28;20689;-66
2023/08/18 05:30:05;;;;;;;1.23;1.20;;;;;;;27.17;69.63;99424.84;5056835;28;20204;-66
2023/08/18 05:32:32;;;;;;;1.07;1.07;;;;;;;27.40;70.62;99419.94;5056389;28;20278;-66
2023/08/18 05:34:59;;;;;;;1.40;1.30;;;;;;;27.47;67.61;99410.47;5056531;28;20192;-65
2023/08/18 05:37:26;;;;;;;0.93;0.93;;;;;;;27.69;67.06;99425.75;5056805;28;20665;-66
2023/08/18 05:39:54;;;;;;;4.70;1.13;;;;;;;27.89;68.93;99431.66;5053573;28;20193;-66
2023/08/18 05:42:21;;;;;;;5.43;1.30;;;;;;;28.09;66.18;99431.31;5052081;28;20263;-66
2023/08/18 05:44:48;;;;;;;1.50;1.40;;;;;;;28.29;66.77;99424.00;5053777;28;20228;-66
2023/08/18 05:47:15;;;;;;;1.30;1.20;;;;;;;28.36;63.39;99426.84;5052752;28;20220;-66
2023/08/18 05:49:42;;;;;;;1.20;1.20;;;;;;;28.62;62.83;99440.78;5053690;28;20665;-66
2023/08/18 05:52:08;;;;;;;1.50;1.40;;;;;;;28.82;61.92;99431.63;5053042;28;20193;-65
2023/08/18 05:54:35;;;;;;;1.13;1.13;;;;;;;28.96;61.83;99425.72;5051635;28;20200;-66
2023/08/18 05:57:03;;;;;;;1.13;1.13;;;;;;;29.15;61.57;99438.63;5050626;28;20247;-66
2023/08/18 05:59:32;;;;;;;0.80;0.80;;;;;;;29.31;62.89;99439.66;5051506;28;20197;-66
2023/08/18 06:01:58;;;;;;;1.20;1.10;;;;;;;29.47;62.66;99439.66;5052833;28;20242;-66
2023/08/18 06:04:25;;;;;;;1.33;1.23;;;;;;;29.61;60.53;99439.81;5049698;28;20205;-66
2023/08/18 06:06:52;;;;;;;1.08;1.08;;;;;;;29.76;59.31;99439.94;5052277;28;20259;-67
2023/08/18 06:09:19;;;;;;;1.85;0.88;;;;;;;29.82;61.77;99447.25;5050031;28;21243;-67
2023/08/18 06:11:45;;;;;;;0.90;0.90;;;;;;;29.77;60.19;99438.16;5051461;28;20196;-67
2023/08/18 06:14:13;;;;;;;0.95;0.95;;;;;;;29.80;59.97;99443.09;5050868;28;20935;-66
2023/08/18 06:16:40;;;;;;;2.63;1.30;;;;;;;29.95;60.72;99444.91;5051540;28;20201;-66
2023/08/18 06:19:08;;;;;;;5.70;1.30;;;;;;;30.19;58.70;99444.03;5052774;28;20219;-66
2023/08/18 06:21:34;;;;;;;1.27;1.25;;;;;;;30.40;58.01;99441.69;5051525;28;20657;-69
2023/08/18 06:24:02;;;;;;;1.13;1.13;;;;;;;30.52;58.64;99436.84;5049112;28;20254;-70
2023/08/18 06:26:29;;;;;;;1.90;1.83;;;;;;;30.69;57.22;99447.19;5050569;28;20628;-70
2023/08/18 06:28:56;;;;;;;1.35;1.25;;;;;;;30.87;56.19;99441.59;5049265;28;20270;-69
2023/08/18 06:31:24;;;;;;;1.05;1.05;;;;;;;31.03;58.15;99449.47;5050936;28;20888;-70
2023/08/18 06:33:51;;;;;;;1.20;1.20;;;;;;;31.01;56.42;99440.91;5051522;28;20334;-67
2023/08/18 06:36:17;;;;;;;1.20;1.20;;;;;;;31.12;56.71;99437.81;5051251;28;20203;-68
2023/08/18 06:38:44;;;;;;;2.17;1.02;;;;;;;31.30;55.27;99444.66;5049540;28;20674;-67
2023/08/18 06:41:11;;;;;;;1.40;1.30;;;;;;;31.47;53.87;99444.34;5049926;28;20205;-67
2023/08/18 06:43:37;;;;;;;1.08;0.98;;;;;;;31.39;53.76;99443.59;5048573;28;20197;-68
2023/08/18 06:46:05;;;;;;;1.85;1.08;;;;;;;31.53;53.35;99442.84;5050645;28;20631;-67
2023/08/18 06:48:33;;;;;;;0.90;0.90;;;;;;;31.70;52.79;99441.69;5049422;28;20342;-66
2023/08/18 06:51:00;;;;;;;2.00;0.95;;;;;;;31.75;54.00;99439.31;5049722;28;20204;-68
2023/08/18 06:53:27;;;;;;;1.02;1.02;;;;;;;31.97;52.95;99434.97;5050745;28;20213;-68
2023/08/18 06:55:56;;;;;;;1.27;1.25;;;;;;;32.19;50.39;99448.16;5050341;28;20224;-68
2023/08/18 06:58:23;;;;;;;2.10;1.05;;;;;;;32.42;49.60;99441.94;5050326;28;20197;-67
2023/08/18 07:00:49;;;;;;;1.10;1.10;;;;;;;32.58;49.69;99445.22;5046025;28;20208;-68
2023/08/18 07:03:16;;;;;;;0.90;0.90;;;;;;;32.64;50.85;99441.81;5050338;28;20208;-68
2023/08/18 07:05:45;;;;;;;1.88;1.25;;;;;;;32.83;52.23;99437.75;5048059;28;20619;-68
2023/08/18 07:08:12;;;;;;;1.02;1.00;;;;;;;32.98;49.20;99443.03;5048403;28;20305;-68
2023/08/18 07:10:38;;;;;;;2.30;1.73;;;;;;;33.10;47.43;99439.72;5046405;28;21406;-68
2023/08/18 07:13:05;;;;;;;1.00;1.00;;;;;;;33.19;47.23;99433.25;5049130;28;20205;-68
2023/08/18 07:15:32;;;;;;;1.08;1.02;;;;;;;33.43;46.82;99433.88;5048764;28;20202;-68
2023/08/18 07:17:59;;;;;;;1.40;1.30;;;;;;;33.64;48.03;99436.53;5048719;28;20208;-68
2023/08/18 07:20:26;;;;;;;1.38;1.27;;;;;;;33.64;45.51;99433.88;5048115;28;20209;-72
2023/08/18 07:22:55;;;;;;;1.02;1.02;;;;;;;33.75;45.11;99431.50;5046418;28;20278;-68
2023/08/18 07:25:22;;;;;;;1.30;1.00;;;;;;;33.82;44.46;99431.56;5047155;28;20205;-68
2023/08/18 07:27:49;;;;;;;1.10;1.00;;;;;;;33.90;44.63;99434.06;5048958;28;20216;-68
2023/08/18 07:30:15;;;;;;;0.80;0.80;;;;;;;34.04;43.77;99429.63;5047285;28;20213;-66
2023/08/18 07:32:42;;;;;;;3.40;1.00;;;;;;;34.20;44.21;99430.19;5050551;28;20200;-67
2023/08/18 07:35:10;;;;;;;1.42;1.33;;;;;;;34.32;44.40;99426.94;5050244;28;20208;-67
2023/08/18 07:37:36;;;;;;;1.00;1.00;;;;;;;33.94;42.48;99408.72;5050178;28;20262;-67
2023/08/18 07:40:09;;;;;;;1.10;1.10;;;;;;;34.09;45.50;99428.03;5047723;28;20201;-67
2023/08/18 07:42:36;;;;;;;0.90;0.90;;;;;;;33.96;45.35;99425.28;5051383;28;20196;-67
2023/08/18 07:45:03;;;;;;;1.17;1.17;;;;;;;34.04;45.43;99430.47;5050663;28;20201;-66
2023/08/18 07:47:30;;;;;;;1.38;1.25;;;;;;;34.19;44.23;99427.69;5050142;28;20204;-67
2023/08/18 07:49:55;;;;;;;0.98;0.98;;;;;;;34.32;44.67;99427.75;5051170;28;20196;-66
2023/08/18 07:52:22;;;;;;;0.80;0.80;;;;;;;34.50;43.33;99424.56;5049807;28;20201;-66
2023/08/18 07:54:50;;;;;;;5.13;0.95;;;;;;;34.68;44.48;99428.34;5049489;28;20208;-66
2023/08/18 07:57:18;;;;;;;0.95;0.95;;;;;;;34.76;44.56;99424.69;5046510;28;20219;-67
2023/08/18 07:59:45;;;;;;;1.30;1.20;;;;;;;34.86;43.89;99430.47;5050438;28;20258;-67
2023/08/18 08:02:11;;;;;;;1.75;1.02;;;;;;;34.94;41.33;99424.94;5045865;28;20738;-66
2023/08/18 08:04:38;;;;;;;0.80;0.80;;;;;;;34.95;43.16;99431.91;5048013;28;20204;-67
2023/08/18 08:07:05;;;;;;;1.13;0.90;;;;;;;34.94;43.60;99430.25;5042635;28;20208;-67
2023/08/18 08:09:31;;;;;;;0.98;0.98;;;;;;;34.95;40.40;99439.91;5047230;28;20220;-65
2023/08/18 08:11:58;;;;;;;0.82;0.82;;;;;;;34.72;39.83;99434.94;5045861;28;20197;-68
2023/08/18 08:14:26;;;;;;;0.90;0.90;;;;;;;34.85;41.91;99438.66;5047338;28;20682;-68
2023/08/18 08:16:53;;;;;;;0.68;0.68;;;;;;;34.86;42.09;99433.13;5048068;28;20196;-68
2023/08/18 08:19:20;;;;;;;0.90;0.90;;;;;;;35.06;43.86;99428.66;5049127;28;20203;-68
2023/08/18 08:21:46;;;;;;;1.02;1.02;;;;;;;35.18;41.41;99421.75;5049074;28;20213;-68
2023/08/18 08:24:13;;;;;;;0.80;0.80;;;;;;;35.26;42.85;99416.19;5048818;28;20652;-69
2023/08/18 08:26:40;;;;;;;0.98;0.98;;;;;;;35.26;42.47;99418.88;5047351;28;20200;-67
2023/08/18 08:29:07;;;;;;;0.88;0.88;;;;;;;35.11;40.58;99412.09;5049205;28;20225;-67
2023/08/18 08:31:35;;;;;;;2.20;0.95;;;;;;;35.01;42.09;99416.97;5049510;28;20258;-67
2023/08/18 08:34:02;;;;;;;0.93;0.93;;;;;;;34.91;40.17;99412.03;5046939;28;20270;-70
2023/08/18 08:36:32;;;;;;;0.80;0.80;;;;;;;34.84;41.79;99413.84;5049076;28;20641;-69
2023/08/18 08:38:59;;;;;;;0.90;0.90;;;;;;;34.99;41.27;99408.34;5048633;28;20208;-69
2023/08/18 08:41:26;;;;;;;0.98;0.98;;;;;;;35.25;40.79;99409.22;5047305;28;20752;-69
2023/08/18 08:43:53;;;;;;;0.80;0.80;;;;;;;35.25;41.39;99409.22;5048508;28;20649;-68
2023/08/18 08:46:22;;;;;;;0.60;0.60;;;;;;;34.85;41.22;99407.50;5047709;28;20286;-68
2023/08/18 08:48:52;;;;;;;0.95;0.95;;;;;;;34.48;41.97;99386.66;5048395;28;20220;-68
2023/08/18 08:51:22;;;;;;;1.77;0.90;;;;;;;34.41;42.12;99377.84;5047775;28;20614;-68
2023/08/18 08:53:51;;;;;;;0.80;0.80;;;;;;;34.76;42.36;99388.22;5047595;28;20230;-68
2023/08/18 08:56:19;;;;;;;1.55;1.27;;;;;;;34.88;42.75;99384.97;5048659;28;20627;-67
2023/08/18 08:58:48;;;;;;;0.95;0.70;;;;;;;34.77;41.92;99378.38;5049194;28;20209;-67
2023/08/18 09:01:14;;;;;;;0.88;0.88;;;;;;;34.75;42.89;99385.75;5048126;28;20616;-61
2023/08/18 09:03:43;;;;;;;1.35;1.25;;;;;;;34.96;42.41;99388.25;5049045;28;20255;-62
2023/08/18 09:06:12;;;;;;;1.05;1.05;;;;;;;34.65;40.55;99391.47;5047898;28;20291;-61
2023/08/18 09:08:38;;;;;;;1.20;1.20;;;;;;;34.64;40.81;99378.34;5049431;28;20229;-61
2023/08/18 09:11:05;;;;;;;2.47;0.80;;;;;;;34.68;40.42;99384.91;5048436;28;20205;-61
2023/08/18 09:13:34;;;;;;;0.80;0.80;;;;;;;34.73;39.61;99379.81;5047522;28;20275;-61
2023/08/18 09:16:03;;;;;;;1.13;1.08;;;;;;;34.90;41.55;99378.41;5051697;28;20216;-62
2023/08/18 09:18:31;;;;;;;0.90;0.90;;;;;;;34.58;40.32;99384.44;5052433;28;20262;-62
2023/08/18 09:21:00;;;;;;;0.90;0.90;;;;;;;34.39;41.36;99377.22;5051112;28;20197;-61
2023/08/18 09:23:29;;;;;;;0.95;0.95;;;;;;;34.41;41.85;99359.22;5051190;28;20236;-61
2023/08/18 09:25:57;;;;;;;0.90;0.90;;;;;;;34.70;42.51;99367.72;5052377;28;20684;-61
2023/08/18 09:28:24;;;;;;;1.55;1.08;;;;;;;34.94;40.03;99370.81;5050148;28;20227;-62
2023/08/18 09:30:51;;;;;;;0.80;0.80;;;;;;;34.97;39.74;99368.56;5049850;28;20626;-62
2023/08/18 09:33:18;;;;;;;6.07;0.80;;;;;;;35.10;40.04;99368.63;5051520;28;20665;-65
2023/08/18 09:35:44;;;;;;;1.00;0.80;;;;;;;35.12;39.74;99365.78;5051072;28;20650;-62
2023/08/18 09:38:13;;;;;;;1.17;1.13;;;;;;;35.02;40.11;99366.13;5050026;28;20197;-62
2023/08/18 09:40:41;;;;;;;0.88;0.88;;;;;;;35.02;40.48;99365.31;5051601;28;20612;-63
2023/08/18 09:43:08;;;;;;;1.73;1.10;;;;;;;34.83;39.87;99369.59;5050389;28;20250;-62
2023/08/18 09:45:40;;;;;;;1.65;0.82;;;;;;;34.43;39.92;99367.81;5051403;28;20197;-62
2023/08/18 09:48:13;;;;;;;1.33;1.10;;;;;;;34.39;40.58;99371.88;5050059;28;20192;-61
2023/08/18 09:50:41;;;;;;;1.00;1.00;;;;;;;34.62;40.75;99359.91;5048790;28;20207;-62
2023/08/18 09:53:09;;;;;;;0.75;0.75;;;;;;;34.45;39.85;99357.78;5050463;28;20207;-62
2023/08/18 09:55:43;;;;;;;0.70;0.70;;;;;;;34.44;41.15;99356.97;5049619;28;20267;-68
2023/08/18 09:58:22;;;;;;;2.75;0.90;;;;;;;34.71;40.37;99368.53;5049742;28;20750;-67
2023/08/18 10:00:56;;;;;;;0.70;0.70;;;;;;;34.95;40.51;99367.97;5046316;28;20220;-67
2023/08/18 10:03:26;;;;;;;0.80;0.80;;;;;;;35.17;39.34;99368.63;5048160;28;20771;-68
2023/08/18 10:05:53;;;;;;;0.93;0.80;;;;;;;35.22;40.04;99360.84;5050705;28;20207;-67
2023/08/18 10:08:22;;;;;;;0.60;0.60;;;;;;;35.36;39.83;99361.63;5048905;28;20217;-67
2023/08/18 10:10:51;;;;;;;0.88;0.88;;;;;;;35.46;39.84;99354.03;5049375;28;20204;-66
2023/08/18 10:13:19;;;;;;;0.70;0.70;;;;;;;35.41;38.68;99367.19;5050099;28;20213;-67
2023/08/18 10:15:48;;;;;;;2.42;0.98;;;;;;;35.49;39.02;99366.97;5050813;28;20201;-67
2023/08/18 10:18:17;;;;;;;0.68;0.68;;;;;;;35.78;38.45;99363.88;5049675;28;20262;-67
2023/08/18 10:20:49;;;;;;;0.75;0.75;;;;;;;35.85;38.09;99351.34;5049216;28;20196;-69
2023/08/18 10:23:17;;;;;;;1.02;1.02;;;;;;;36.03;38.55;99364.81;5051207;28;20242;-69
2023/08/18 10:25:45;;;;;;;4.85;1.10;;;;;;;36.17;38.24;99352.28;5050984;28;20638;-66
2023/08/18 10:28:19;;;;;;;0.80;0.80;;;;;;;35.78;38.00;99359.34;5046087;28;20558;-70
2023/08/18 10:30:50;;;;;;;1.05;0.75;;;;;;;35.87;38.98;99359.94;5050327;28;20683;-68
2023/08/18 10:33:29;;;;;;;0.70;0.70;;;;;;;35.75;39.09;99345.59;5050367;28;20262;-66
2023/08/18 10:36:02;;;;;;;2.90;1.08;;;;;;;36.16;39.04;99354.13;5051256;28;20204;-70
2023/08/18 10:38:29;;;;;;;0.90;0.90;;;;;;;36.21;37.50;99351.66;5048027;28;20197;-69
2023/08/18 10:40:57;;;;;;;0.82;0.82;;;;;;;35.72;37.35;99351.38;5051263;28;20208;-69
2023/08/18 10:43:28;;;;;;;0.60;0.60;;;;;;;35.08;38.43;99344.00;5051767;28;20604;-68
2023/08/18 10:45:59;;;;;;;0.65;0.65;;;;;;;35.35;39.56;99333.38;5051458;28;20641;-67
2023/08/18 10:48:29;;;;;;;1.13;1.13;;;;;;;35.76;38.73;99339.25;5049245;28;20203;-68
2023/08/18 10:50:56;;;;;;;1.15;1.15;;;;;;;35.94;37.84;99331.38;5051802;28;20199;-67
2023/08/18 10:53:22;;;;;;;0.68;0.68;;;;;;;36.06;37.89;99332.38;5051285;28;20680;-66
2023/08/18 10:55:53;;;;;;;0.93;0.85;;;;;;;35.90;37.80;99327.50;5051442;28;20266;-67
2023/08/18 10:58:20;;;;;;;0.80;0.80;;;;;;;35.53;36.61;99325.53;5051752;28;20210;-69
2023/08/18 11:00:49;;;;;;;0.65;0.65;;;;;;;35.33;37.49;99332.72;5051625;28;20251;-66
2023/08/18 11:03:16;;;;;;;0.70;0.70;;;;;;;35.49;37.59;99345.63;5050453;28;20668;-70
2023/08/18 11:05:43;;;;;;;1.10;1.05;;;;;;;35.42;37.77;99340.31;5049871;28;20205;-69
2023/08/18 11:08:10;;;;;;;0.50;0.50;;;;;;;35.59;37.39;99338.06;5051014;28;20212;-67
2023/08/18 11:10:39;;;;;;;1.52;0.75;;;;;;;35.77;36.75;99328.34;5050659;28;20304;-67
2023/08/18 11:13:07;;;;;;;0.70;0.70;;;;;;;35.77;35.28;99328.34;5051007;28;20200;-68
2023/08/18 11:15:33;;;;;;;0.60;0.60;;;;;;;35.62;32.91;99329.63;5050725;28;20622;-67
2023/08/18 11:18:02;;;;;;;0.52;0.52;;;;;;;35.56;33.17;99341.09;5051136;28;20250;-68
2023/08/18 11:20:29;;;;;;;0.90;0.90;;;;;;;35.57;33.57;99337.44;5050299;28;20203;-67
2023/08/18 11:22:57;;;;;;;0.63;0.63;;;;;;;35.69;34.08;99328.59;5049030;28;20292;-68
2023/08/18 11:25:25;;;;;;;0.70;0.70;;;;;;;35.72;32.24;99336.19;5050575;28;20250;-69
2023/08/18 11:27:52;;;;;;;1.40;0.75;;;;;;;35.58;32.20;99337.22;5050473;28;20602;-68
2023/08/18 11:30:20;;;;;;;0.85;0.85;;;;;;;35.58;32.58;99337.22;5050626;28;20216;-68
2023/08/18 11:32:47;;;;;;;2.22;0.82;;;;;;;35.76;33.26;99321.41;5050641;28;20247;-66
2023/08/18 11:35:18;;;;;;;0.70;0.70;;;;;;;35.97;33.08;99328.28;5050400;28;20644;-68